Time;durP1;ratioP1;P1;durP2;ratioP2;P2;SDS_P1;SDS_P2;PMS_P1;PMS_P2;Temp;Humidity;BMP_temperature;BMP_pressure;BME280_temperature;BME280_humidity;BME280_pressure;Samples;Min_cycle;Max_cycle;Signal;HPM_P1;HPM_P2
2024/01/27 00:02:19;;;;;;;11.57;5.00;;;13.70;61.00;;;;;;6245695;28;20052;-72
2024/01/27 00:05:20;;;;;;;11.63;5.05;;;13.70;60.90;;;;;;6233050;28;20029;-72
2024/01/27 00:08:21;;;;;;;9.80;4.68;;;13.60;60.90;;;;;;6246740;28;20027;-71
2024/01/27 00:11:24;;;;;;;8.60;4.68;;;13.60;61.00;;;;;;6248062;28;20127;-71
2024/01/27 00:14:25;;;;;;;13.38;5.20;;;13.60;61.10;;;;;;6248314;28;20025;-72
2024/01/27 00:17:27;;;;;;;8.98;4.68;;;13.60;61.10;;;;;;6255056;28;20462;-73
2024/01/27 00:20:28;;;;;;;12.35;5.05;;;13.60;61.20;;;;;;6250428;28;20025;-70
2024/01/27 00:23:30;;;;;;;14.88;5.28;;;13.60;61.20;;;;;;6251209;28;20623;-72
2024/01/27 00:26:32;;;;;;;13.00;5.43;;;13.50;61.40;;;;;;6252127;28;20036;-72
2024/01/27 00:29:32;;;;;;;9.75;5.13;;;13.50;61.50;;;;;;6284376;28;20021;-71
2024/01/27 00:32:34;;;;;;;12.55;5.50;;;13.50;62.50;;;;;;6233614;28;20029;-73
2024/01/27 00:35:35;;;;;;;10.30;5.50;;;13.50;61.80;;;;;;6251180;28;20106;-72
2024/01/27 00:38:36;;;;;;;14.48;5.97;;;13.50;61.90;;;;;;6252137;28;20017;-71
2024/01/27 00:41:37;;;;;;;12.70;4.95;;;13.50;61.90;;;;;;6251170;28;20033;-72
2024/01/27 00:44:37;;;;;;;13.40;5.50;;;13.30;61.90;;;;;;6286421;28;20048;-72
2024/01/27 00:47:38;;;;;;;13.02;4.95;;;13.40;61.90;;;;;;6249414;28;20021;-72
2024/01/27 00:50:39;;;;;;;12.00;5.18;;;13.40;61.80;;;;;;6264390;28;20466;-72
2024/01/27 00:53:41;;;;;;;8.95;5.00;;;13.40;61.90;;;;;;6267335;28;20025;-72
2024/01/27 00:56:41;;;;;;;11.23;4.75;;;13.40;62.00;;;;;;6248292;28;20021;-73
2024/01/27 00:59:42;;;;;;;10.70;5.28;;;13.40;62.10;;;;;;6246777;28;20028;-72
2024/01/27 01:02:43;;;;;;;17.20;5.15;;;13.40;62.20;;;;;;6250321;28;20419;-72
2024/01/27 01:05:44;;;;;;;13.05;5.07;;;13.40;62.30;;;;;;6250864;28;20773;-71
2024/01/27 01:08:46;;;;;;;12.50;5.10;;;13.30;62.20;;;;;;6254290;28;20005;-71
2024/01/27 01:11:47;;;;;;;9.43;5.15;;;13.30;62.20;;;;;;6253191;28;20107;-73
2024/01/27 01:14:48;;;;;;;11.73;4.97;;;13.30;62.20;;;;;;6271521;28;20029;-71
2024/01/27 01:17:49;;;;;;;9.55;3.67;;;13.30;62.30;;;;;;6253737;28;20114;-72
2024/01/27 01:20:51;;;;;;;6.95;3.95;;;13.20;62.20;;;;;;6249634;28;20077;-74
2024/01/27 01:23:53;;;;;;;11.57;5.00;;;13.20;62.20;;;;;;6262498;28;20090;-73
2024/01/27 01:26:54;;;;;;;9.13;4.53;;;13.10;62.30;;;;;;6242458;28;20552;-71
2024/01/27 01:29:55;;;;;;;7.75;3.70;;;13.10;62.30;;;;;;6252599;28;20025;-71
2024/01/27 01:32:56;;;;;;;8.57;3.90;;;13.00;62.40;;;;;;6250831;28;20059;-72
2024/01/27 01:35:56;;;;;;;8.52;4.60;;;13.00;62.50;;;;;;6247386;28;20073;-71
2024/01/27 01:38:57;;;;;;;12.32;4.38;;;12.90;62.50;;;;;;6247128;28;20126;-73
2024/01/27 01:41:58;;;;;;;11.43;5.18;;;12.90;62.70;;;;;;6246406;28;20028;-71
2024/01/27 01:44:59;;;;;;;13.63;4.82;;;12.90;63.00;;;;;;6250175;28;20488;-70
2024/01/27 01:48:01;;;;;;;8.70;4.38;;;12.90;63.10;;;;;;6248265;28;20112;-70
2024/01/27 01:51:03;;;;;;;13.65;4.57;;;12.90;63.40;;;;;;6247772;28;20071;-72
2024/01/27 01:54:05;;;;;;;9.93;4.28;;;12.90;63.60;;;;;;6246718;28;20041;-71
2024/01/27 01:57:08;;;;;;;7.78;4.38;;;12.90;63.60;;;;;;6244338;28;20337;-73
2024/01/27 02:00:10;;;;;;;12.93;4.78;;;12.80;63.40;;;;;;6255798;28;20061;-72
2024/01/27 02:03:15;;;;;;;15.13;4.43;;;12.70;63.30;;;;;;6251724;28;20048;-72
2024/01/27 02:06:16;;;;;;;14.55;4.50;;;12.60;63.50;;;;;;6250457;28;20134;-72
2024/01/27 02:09:16;;;;;;;7.50;4.03;;;12.50;63.90;;;;;;6251403;28;20032;-71
2024/01/27 02:12:17;;;;;;;10.77;4.38;;;12.40;64.10;;;;;;6247817;28;20017;-72
2024/01/27 02:15:21;;;;;;;7.85;3.90;;;12.40;64.30;;;;;;6249036;28;20549;-71
2024/01/27 02:18:23;;;;;;;6.22;3.22;;;12.30;64.30;;;;;;6282310;28;20025;-71
2024/01/27 02:21:23;;;;;;;5.50;3.20;;;12.30;64.50;;;;;;6244947;28;20044;-72
2024/01/27 02:24:25;;;;;;;6.78;3.80;;;12.30;64.60;;;;;;6250805;28;20043;-71
2024/01/27 02:27:26;;;;;;;8.32;4.00;;;12.20;64.70;;;;;;6230774;28;20032;-72
2024/01/27 02:30:26;;;;;;;10.35;3.97;;;12.20;64.70;;;;;;6254058;28;20032;-72
2024/01/27 02:33:29;;;;;;;9.82;4.38;;;12.20;64.90;;;;;;6255852;28;20024;-72
2024/01/27 02:36:30;;;;;;;16.90;4.68;;;12.20;65.00;;;;;;6248164;28;20075;-71
2024/01/27 02:39:31;;;;;;;11.63;4.57;;;12.10;65.00;;;;;;6245118;28;20327;-71
2024/01/27 02:42:32;;;;;;;7.50;3.60;;;12.20;65.20;;;;;;6244187;28;20033;-70
2024/01/27 02:45:33;;;;;;;12.52;4.50;;;12.20;65.30;;;;;;6250032;28;20134;-72
2024/01/27 02:48:34;;;;;;;10.30;4.47;;;12.30;65.40;;;;;;6248730;28;20887;-73
2024/01/27 02:51:35;;;;;;;12.57;4.95;;;12.30;65.40;;;;;;6244106;28;20824;-71
2024/01/27 02:54:35;;;;;;;10.02;4.20;;;12.30;65.20;;;;;;6252652;28;20036;-72
2024/01/27 02:57:36;;;;;;;9.05;4.68;;;12.40;65.30;;;;;;6232752;28;20104;-73
2024/01/27 03:00:37;;;;;;;11.27;5.18;;;12.40;65.10;;;;;;6247926;28;20483;-72
2024/01/27 03:03:38;;;;;;;12.95;4.30;;;12.40;65.20;;;;;;6248797;28;20021;-72
2024/01/27 03:06:39;;;;;;;9.00;4.28;;;12.30;65.10;;;;;;6223443;28;20904;-72
2024/01/27 03:09:40;;;;;;;9.20;4.53;;;12.30;65.90;;;;;;6241618;28;20045;-70
2024/01/27 03:12:40;;;;;;;9.63;4.63;;;12.20;65.10;;;;;;6244941;28;20025;-70
2024/01/27 03:15:43;;;;;;;7.75;4.20;;;12.20;65.20;;;;;;6246737;28;20052;-72
2024/01/27 03:18:43;;;;;;;13.13;6.40;;;12.20;65.30;;;;;;6248359;28;20024;-71
2024/01/27 03:21:46;;;;;;;10.30;4.90;;;12.20;65.20;;;;;;6232227;28;20579;-71
2024/01/27 03:24:48;;;;;;;10.05;5.82;;;12.20;65.10;;;;;;6243619;28;20138;-71
2024/01/27 03:27:49;;;;;;;16.95;5.82;;;12.20;65.20;;;;;;6247264;28;20089;-72
2024/01/27 03:30:49;;;;;;;6.00;3.55;;;12.20;65.20;;;;;;6251694;28;20401;-72
2024/01/27 03:33:50;;;;;;;6.45;3.95;;;12.20;65.20;;;;;;6234811;28;20024;-71
2024/01/27 03:36:51;;;;;;;11.05;5.22;;;12.20;65.30;;;;;;6253207;28;20402;-72
2024/01/27 03:39:52;;;;;;;7.97;4.38;;;12.20;65.40;;;;;;6233541;28;20032;-72
2024/01/27 03:42:54;;;;;;;11.48;5.30;;;12.20;65.50;;;;;;6259676;28;20054;-72
2024/01/27 03:45:55;;;;;;;17.60;5.75;;;12.20;65.50;;;;;;6259301;28;20128;-72
2024/01/27 03:48:56;;;;;;;9.25;4.68;;;12.30;65.60;;;;;;6249662;28;20077;-71
2024/01/27 03:51:57;;;;;;;9.60;5.07;;;12.30;65.60;;;;;;6249814;28;20046;-71
2024/01/27 03:54:58;;;;;;;8.68;4.70;;;12.30;65.50;;;;;;6249660;28;20029;-71
2024/01/27 03:57:58;;;;;;;9.32;4.55;;;12.40;65.50;;;;;;6250497;28;20045;-72
2024/01/27 04:01:00;;;;;;;8.30;4.43;;;12.40;65.20;;;;;;6255317;28;20118;-71
2024/01/27 04:04:02;;;;;;;15.13;5.90;;;12.30;65.30;;;;;;6250542;28;20153;-71
2024/01/27 04:07:03;;;;;;;11.48;5.07;;;12.20;65.50;;;;;;6254809;28;20115;-70
2024/01/27 04:10:05;;;;;;;9.05;4.20;;;12.20;65.60;;;;;;6253750;28;20066;-71
2024/01/27 04:13:05;;;;;;;8.43;4.57;;;12.20;65.70;;;;;;6252619;28;20062;-72
2024/01/27 04:16:07;;;;;;;8.02;4.25;;;12.30;65.70;;;;;;6249312;28;20477;-72
2024/01/27 04:19:08;;;;;;;11.48;4.60;;;12.30;65.80;;;;;;6249191;28;20053;-71
2024/01/27 04:22:09;;;;;;;7.47;4.00;;;12.30;66.60;;;;;;6252104;28;20100;-70
2024/01/27 04:25:10;;;;;;;8.95;3.80;;;12.20;65.70;;;;;;6247342;28;20037;-72
2024/01/27 04:28:12;;;;;;;10.45;4.32;;;12.20;65.70;;;;;;6247348;28;20025;-72
2024/01/27 04:31:13;;;;;;;7.18;3.42;;;12.20;65.80;;;;;;6254140;28;20124;-71
2024/01/27 04:34:15;;;;;;;6.57;3.67;;;12.20;65.70;;;;;;6238848;28;20021;-71
2024/01/27 04:37:16;;;;;;;11.15;4.40;;;12.20;65.80;;;;;;6250940;28;20132;-70
2024/01/27 04:40:17;;;;;;;11.63;3.70;;;12.20;66.70;;;;;;6249938;28;20029;-72
2024/01/27 04:43:18;;;;;;;4.57;2.80;;;12.20;65.90;;;;;;6250252;28;21405;-72
2024/01/27 04:46:20;;;;;;;6.45;3.35;;;12.20;65.90;;;;;;6260956;28;20218;-71
2024/01/27 04:49:21;;;;;;;11.10;3.72;;;12.20;65.90;;;;;;6243577;28;20014;-72
2024/01/27 04:52:22;;;;;;;7.20;3.72;;;12.10;66.00;;;;;;6249376;28;20037;-72
2024/01/27 04:55:23;;;;;;;7.03;3.72;;;12.10;66.00;;;;;;6246121;28;20481;-70
2024/01/27 04:58:24;;;;;;;9.40;4.18;;;12.10;66.20;;;;;;6251669;28;20021;-72
2024/01/27 05:01:25;;;;;;;5.35;3.65;;;12.00;66.30;;;;;;6252530;28;20025;-71
2024/01/27 05:04:26;;;;;;;8.82;3.72;;;12.00;66.40;;;;;;6233766;28;20103;-71
2024/01/27 05:07:28;;;;;;;7.30;3.42;;;12.00;66.50;;;;;;6246849;28;20028;-71
2024/01/27 05:10:28;;;;;;;7.78;3.75;;;11.90;66.40;;;;;;6247487;28;20100;-71
2024/01/27 05:13:29;;;;;;;10.18;4.20;;;11.90;66.50;;;;;;6287249;28;20040;-71
2024/01/27 05:16:33;;;;;;;11.25;4.25;;;11.90;66.60;;;;;;6250123;28;20017;-72
2024/01/27 05:19:37;;;;;;;7.20;4.05;;;11.90;66.60;;;;;;6250007;28;20059;-72
2024/01/27 05:22:38;;;;;;;6.45;3.72;;;11.90;66.60;;;;;;6249294;28;20017;-71
2024/01/27 05:25:39;;;;;;;17.63;4.07;;;11.80;66.60;;;;;;6247696;28;20187;-71
2024/01/27 05:28:40;;;;;;;10.50;3.75;;;11.90;66.70;;;;;;6230657;28;20013;-73
2024/01/27 05:31:43;;;;;;;7.70;4.20;;;11.80;66.70;;;;;;6232216;28;20078;-72
2024/01/27 05:34:44;;;;;;;10.73;3.72;;;11.90;66.60;;;;;;6252471;28;20061;-71
2024/01/27 05:37:45;;;;;;;9.00;3.55;;;11.90;66.60;;;;;;6261884;28;20515;-72
2024/01/27 05:40:46;;;;;;;8.55;4.28;;;11.90;66.50;;;;;;6247439;28;20021;-71
2024/01/27 05:43:50;;;;;;;7.57;3.95;;;11.90;66.40;;;;;;6250019;28;20040;-71
2024/01/27 05:46:50;;;;;;;9.52;4.57;;;11.90;66.40;;;;;;6248863;28;20087;-72
2024/01/27 05:49:52;;;;;;;7.95;4.13;;;11.90;66.40;;;;;;6254905;28;20327;-71
2024/01/27 05:52:54;;;;;;;7.55;3.72;;;11.90;66.40;;;;;;6251661;28;20033;-72
2024/01/27 05:55:56;;;;;;;6.88;3.95;;;11.90;66.30;;;;;;6260988;28;20339;-71
2024/01/27 05:58:58;;;;;;;9.45;4.38;;;11.90;66.30;;;;;;6282987;28;20028;-70
2024/01/27 06:01:59;;;;;;;9.35;4.60;;;11.90;66.30;;;;;;6250227;28;20154;-71
2024/01/27 06:05:00;;;;;;;9.63;4.20;;;11.90;66.30;;;;;;6245909;28;20042;-71
2024/01/27 06:08:02;;;;;;;11.40;4.68;;;11.90;66.40;;;;;;6247499;28;20092;-72
2024/01/27 06:11:04;;;;;;;11.38;6.20;;;11.90;66.40;;;;;;6245980;28;20481;-71
2024/01/27 06:14:06;;;;;;;12.20;5.90;;;11.90;66.50;;;;;;6249772;28;20029;-71
2024/01/27 06:17:07;;;;;;;11.88;5.70;;;11.80;66.50;;;;;;6254390;28;20040;-72
2024/01/27 06:20:08;;;;;;;11.63;4.95;;;11.80;66.60;;;;;;6248045;28;20448;-71
2024/01/27 06:23:09;;;;;;;9.70;5.63;;;11.80;66.60;;;;;;6246726;28;20340;-72
2024/01/27 06:26:12;;;;;;;10.48;5.25;;;11.80;66.70;;;;;;6260986;28;20029;-70
2024/01/27 06:29:13;;;;;;;16.23;5.45;;;11.80;66.60;;;;;;6247101;28;20606;-71
2024/01/27 06:32:15;;;;;;;16.08;4.45;;;11.90;66.70;;;;;;6254211;28;20079;-71
2024/01/27 06:35:16;;;;;;;11.13;5.28;;;11.90;66.80;;;;;;6247864;28;20028;-72
2024/01/27 06:38:17;;;;;;;12.88;5.80;;;11.90;66.70;;;;;;6246910;28;20133;-72
2024/01/27 06:41:18;;;;;;;10.75;6.10;;;12.00;66.80;;;;;;6236974;28;20112;-72
2024/01/27 06:44:18;;;;;;;12.75;5.65;;;12.00;66.70;;;;;;6245313;28;20049;-72
2024/01/27 06:47:19;;;;;;;11.45;5.35;;;12.00;66.60;;;;;;6265516;28;20560;-70
2024/01/27 06:50:20;;;;;;;21.15;5.95;;;12.10;66.70;;;;;;6234870;28;20028;-70
2024/01/27 06:53:21;;;;;;;12.02;4.93;;;12.10;66.70;;;;;;6249654;28;20021;-71
2024/01/27 06:56:22;;;;;;;18.13;5.03;;;12.10;66.60;;;;;;6249207;28;20135;-72
2024/01/27 06:59:23;;;;;;;10.70;4.72;;;12.20;66.60;;;;;;6249646;28;20614;-71
2024/01/27 07:02:26;;;;;;;13.77;5.10;;;12.20;66.60;;;;;;6250909;28;20455;-72
2024/01/27 07:05:27;;;;;;;13.93;5.40;;;12.20;66.40;;;;;;6249907;28;20025;-72
2024/01/27 07:08:29;;;;;;;8.35;4.63;;;12.30;66.30;;;;;;6247735;28;20338;-72
2024/01/27 07:11:30;;;;;;;12.32;5.20;;;12.40;66.20;;;;;;6247372;28;20024;-71
2024/01/27 07:14:31;;;;;;;10.15;5.32;;;12.40;66.00;;;;;;6245766;28;20472;-71
2024/01/27 07:17:32;;;;;;;13.55;5.82;;;12.40;65.80;;;;;;6234715;28;20025;-73
2024/01/27 07:20:33;;;;;;;10.63;5.38;;;12.40;65.80;;;;;;6248519;28;20024;-70
2024/01/27 07:23:35;;;;;;;9.23;4.97;;;12.50;65.90;;;;;;6247156;28;20736;-70
2024/01/27 07:26:36;;;;;;;12.73;5.55;;;12.50;65.90;;;;;;6248111;28;20025;-72
2024/01/27 07:29:36;;;;;;;11.98;6.13;;;12.60;65.70;;;;;;6283774;28;20076;-71
2024/01/27 07:32:37;;;;;;;12.10;5.63;;;12.60;65.60;;;;;;6282291;28;20025;-71
2024/01/27 07:35:38;;;;;;;9.68;4.80;;;12.70;65.60;;;;;;6243948;28;20518;-70
2024/01/27 07:38:39;;;;;;;11.43;4.90;;;12.70;65.50;;;;;;6252618;28;20450;-72
2024/01/27 07:41:42;;;;;;;14.07;5.65;;;12.70;65.40;;;;;;6252805;28;20015;-72
2024/01/27 07:44:43;;;;;;;8.80;4.88;;;12.80;65.40;;;;;;6252809;28;20032;-72
2024/01/27 07:47:44;;;;;;;12.05;5.72;;;12.80;65.30;;;;;;6249854;28;20130;-72
2024/01/27 07:50:48;;;;;;;11.73;5.15;;;12.90;65.20;;;;;;6248514;28;20032;-72
2024/01/27 07:53:49;;;;;;;9.30;5.15;;;13.00;65.20;;;;;;6245478;28;20142;-71
2024/01/27 07:56:50;;;;;;;10.27;4.97;;;13.00;64.90;;;;;;6244917;28;20026;-71
2024/01/27 07:59:51;;;;;;;13.48;4.70;;;13.00;64.90;;;;;;6230190;28;20066;-73
2024/01/27 08:02:51;;;;;;;15.95;6.10;;;13.10;64.80;;;;;;6249099;28;20029;-72
2024/01/27 08:05:53;;;;;;;12.32;5.53;;;13.20;64.70;;;;;;6247686;28;20036;-70
2024/01/27 08:08:54;;;;;;;14.50;5.78;;;13.20;64.60;;;;;;6246913;28;20107;-73
2024/01/27 08:11:55;;;;;;;16.35;6.43;;;13.20;64.30;;;;;;6248004;28;20025;-72
2024/01/27 08:14:56;;;;;;;17.05;6.53;;;13.20;64.20;;;;;;6250753;28;20075;-72
2024/01/27 08:17:57;;;;;;;15.52;6.47;;;13.30;64.30;;;;;;6249793;28;20100;-72
2024/01/27 08:20:58;;;;;;;14.48;6.40;;;13.30;64.30;;;;;;6248526;28;20048;-72
2024/01/27 08:24:00;;;;;;;16.73;6.85;;;13.30;64.30;;;;;;6279696;28;20025;-72
2024/01/27 08:27:01;;;;;;;12.75;5.78;;;13.20;64.30;;;;;;6243763;28;20555;-71
2024/01/27 08:30:03;;;;;;;13.35;6.60;;;13.30;64.30;;;;;;6249059;28;20028;-72
2024/01/27 08:33:05;;;;;;;13.95;6.65;;;13.30;64.30;;;;;;6232790;28;20476;-71
2024/01/27 08:36:06;;;;;;;10.88;5.95;;;13.40;64.20;;;;;;6249057;28;20079;-72
2024/01/27 08:39:08;;;;;;;18.20;6.65;;;13.40;64.10;;;;;;6281264;28;20021;-73
2024/01/27 08:42:11;;;;;;;13.93;6.13;;;13.50;64.10;;;;;;6238100;28;20049;-71
2024/01/27 08:45:12;;;;;;;13.70;6.38;;;13.50;64.00;;;;;;6268485;28;20025;-72
2024/01/27 08:48:16;;;;;;;15.30;7.25;;;13.60;63.80;;;;;;6253375;28;20056;-72
2024/01/27 08:51:17;;;;;;;17.63;7.20;;;13.60;63.70;;;;;;6255780;28;20009;-71
2024/01/27 08:54:19;;;;;;;18.35;7.30;;;13.60;63.80;;;;;;6254576;28;20025;-73
2024/01/27 08:57:21;;;;;;;15.93;7.15;;;13.60;63.80;;;;;;6237410;28;20057;-71
2024/01/27 09:00:22;;;;;;;15.00;7.68;;;13.70;63.80;;;;;;6283663;28;20454;-71
2024/01/27 09:03:23;;;;;;;15.48;7.60;;;13.70;63.70;;;;;;6250366;28;20021;-71
2024/01/27 09:06:23;;;;;;;14.75;6.07;;;13.80;63.60;;;;;;6252791;28;20032;-72
2024/01/27 09:09:26;;;;;;;16.88;7.20;;;13.80;63.40;;;;;;6254531;28;20009;-70
2024/01/27 09:12:27;;;;;;;19.23;7.57;;;13.80;63.40;;;;;;6251950;28;20040;-70
2024/01/27 09:15:28;;;;;;;19.83;6.60;;;13.80;63.30;;;;;;6252420;28;20108;-73
2024/01/27 09:18:30;;;;;;;14.63;6.53;;;13.80;63.30;;;;;;6255218;28;20025;-72
2024/01/27 09:21:32;;;;;;;20.23;7.65;;;13.90;64.10;;;;;;6256645;28;20012;-73
2024/01/27 09:24:33;;;;;;;14.20;7.35;;;14.00;63.20;;;;;;6250431;28;20440;-72
2024/01/27 09:27:34;;;;;;;18.33;8.23;;;14.10;63.00;;;;;;6249129;28;20020;-72
2024/01/27 09:30:35;;;;;;;20.38;8.20;;;14.10;62.70;;;;;;6252555;28;20017;-73
2024/01/27 09:33:36;;;;;;;18.50;8.07;;;14.10;62.60;;;;;;6282462;28;20024;-73
2024/01/27 09:36:37;;;;;;;17.63;8.68;;;14.00;62.90;;;;;;6252743;28;20047;-71
2024/01/27 09:39:38;;;;;;;16.77;8.05;;;14.10;62.80;;;;;;6235142;28;20093;-71
2024/01/27 09:42:39;;;;;;;16.73;8.10;;;14.10;62.70;;;;;;6255064;28;20107;-72
2024/01/27 09:45:40;;;;;;;19.08;8.48;;;14.20;62.80;;;;;;6247473;28;20076;-71
2024/01/27 09:48:42;;;;;;;16.55;7.97;;;14.30;62.60;;;;;;6247724;28;20102;-72
2024/01/27 09:51:43;;;;;;;20.42;8.95;;;14.40;62.50;;;;;;6278307;28;20077;-72
2024/01/27 09:54:44;;;;;;;21.63;8.10;;;14.50;62.30;;;;;;6248746;28;20025;-72
2024/01/27 09:57:46;;;;;;;12.93;6.32;;;14.60;62.10;;;;;;6248665;28;20020;-71
2024/01/27 10:00:46;;;;;;;14.35;7.38;;;14.70;61.40;;;;;;6251461;28;20028;-70
2024/01/27 10:03:47;;;;;;;12.90;6.78;;;14.70;61.30;;;;;;6247716;28;20017;-70
2024/01/27 10:06:50;;;;;;;13.32;6.13;;;14.70;61.20;;;;;;6250565;28;20040;-73
2024/01/27 10:09:51;;;;;;;18.52;8.02;;;14.80;61.10;;;;;;6249621;28;20052;-72
2024/01/27 10:12:55;;;;;;;17.63;7.97;;;15.00;61.00;;;;;;6251762;28;20025;-72
2024/01/27 10:16:04;;;;;;;18.13;9.43;;;15.10;60.70;;;;;;6252671;28;20468;-71
2024/01/27 10:19:05;;;;;;;17.25;8.73;;;15.40;60.10;;;;;;6249947;28;20039;-72
2024/01/27 10:22:06;;;;;;;18.35;7.72;;;15.70;59.30;;;;;;6234867;28;20061;-71
2024/01/27 10:25:09;;;;;;;14.10;7.78;;;15.90;58.70;;;;;;6249652;28;20477;-72
2024/01/27 10:28:10;;;;;;;15.70;7.35;;;16.20;58.10;;;;;;6257613;28;20099;-71
2024/01/27 10:31:12;;;;;;;16.30;8.48;;;16.40;57.60;;;;;;6247137;28;20319;-72
2024/01/27 10:34:15;;;;;;;13.55;7.50;;;16.60;57.60;;;;;;6254902;28;20079;-72
2024/01/27 10:37:15;;;;;;;16.05;7.57;;;16.70;57.40;;;;;;6233126;28;20028;-72
2024/01/27 10:40:17;;;;;;;16.85;7.18;;;16.80;57.20;;;;;;6234735;28;20053;-72
2024/01/27 10:43:19;;;;;;;21.95;8.40;;;16.90;57.20;;;;;;6244923;28;20017;-72
2024/01/27 10:46:23;;;;;;;18.65;7.32;;;16.90;56.90;;;;;;6250383;28;20033;-74
2024/01/27 10:49:25;;;;;;;15.52;7.32;;;17.00;56.60;;;;;;6261655;28;20087;-73
2024/01/27 10:52:32;;;;;;;14.77;6.70;;;17.10;56.50;;;;;;6230768;28;20017;-74
2024/01/27 10:55:36;;;;;;;19.75;7.22;;;17.20;56.20;;;;;;6230957;28;20107;-72
2024/01/27 10:58:56;;;;;;;17.88;7.93;;;17.40;56.00;;;;;;6200514;28;20265;-73
2024/01/27 11:01:58;;;;;;;16.27;8.05;;;17.70;55.60;;;;;;6184832;28;20371;-74
2024/01/27 11:05:07;;;;;;;19.42;8.50;;;18.00;54.90;;;;;;6213782;28;20042;-73
2024/01/27 11:08:10;;;;;;;28.98;12.40;;;18.30;53.90;;;;;;6185726;28;20663;-71
2024/01/27 11:11:11;;;;;;;19.65;7.85;;;18.60;53.40;;;;;;6169058;28;20072;-72
2024/01/27 11:14:12;;;;;;;17.27;9.05;;;19.00;52.60;;;;;;6184281;28;20040;-74
2024/01/27 11:17:16;;;;;;;17.40;8.27;;;19.40;51.80;;;;;;6189539;28;20104;-73
2024/01/27 11:20:18;;;;;;;19.70;9.10;;;19.60;50.60;;;;;;6200531;28;20038;-73
2024/01/27 11:23:19;;;;;;;19.60;9.38;;;20.00;49.70;;;;;;6199657;28;20049;-72
2024/01/27 11:26:22;;;;;;;25.48;11.02;;;20.40;49.20;;;;;;6200317;28;20057;-72
2024/01/27 11:29:25;;;;;;;15.15;7.47;;;20.90;48.20;;;;;;6173878;28;20130;-73
2024/01/27 11:32:29;;;;;;;22.20;10.57;;;21.40;46.60;;;;;;6249101;28;20028;-72
2024/01/27 11:35:30;;;;;;;27.08;10.57;;;21.60;45.50;;;;;;6247704;28;20142;-72
2024/01/27 11:38:32;;;;;;;19.17;8.25;;;21.90;45.00;;;;;;6250008;28;20055;-73
2024/01/27 11:41:33;;;;;;;23.98;8.00;;;22.20;44.00;;;;;;6245367;28;20032;-72
2024/01/27 11:44:39;;;;;;;16.17;7.78;;;22.50;43.10;;;;;;6250430;28;20120;-72
2024/01/27 11:47:40;;;;;;;14.38;7.47;;;22.80;42.90;;;;;;6264248;28;20133;-74
2024/01/27 11:50:41;;;;;;;22.75;11.02;;;23.30;42.30;;;;;;6249004;28;20036;-73
2024/01/27 11:53:42;;;;;;;10.77;6.53;;;23.70;41.50;;;;;;6264447;28;20119;-73
2024/01/27 11:56:43;;;;;;;14.25;6.32;;;24.10;40.30;;;;;;6264693;28;20091;-74
2024/01/27 11:59:44;;;;;;;16.52;7.47;;;24.20;39.00;;;;;;6247108;28;20148;-73
2024/01/27 12:02:51;;;;;;;16.38;7.32;;;24.30;38.90;;;;;;6248295;28;20127;-72
2024/01/27 12:05:53;;;;;;;13.90;6.75;;;24.60;38.50;;;;;;6247043;28;20033;-72
2024/01/27 12:08:57;;;;;;;11.43;5.32;;;24.80;37.70;;;;;;6237133;28;20597;-72
2024/01/27 12:11:58;;;;;;;19.13;8.73;;;24.50;38.00;;;;;;6237566;28;20028;-72
2024/01/27 12:15:02;;;;;;;11.63;6.57;;;23.90;38.60;;;;;;6252778;28;20560;-74
2024/01/27 12:18:05;;;;;;;11.02;5.70;;;23.10;39.60;;;;;;6254299;28;20022;-71
2024/01/27 12:21:09;;;;;;;6.78;4.15;;;22.30;40.50;;;;;;6254365;28;20025;-73
2024/01/27 12:24:16;;;;;;;11.35;4.88;;;21.50;41.70;;;;;;6255182;28;20108;-72
2024/01/27 12:27:19;;;;;;;11.30;5.20;;;20.80;43.00;;;;;;6256399;28;20123;-73
2024/01/27 12:30:21;;;;;;;7.10;4.35;;;20.40;43.70;;;;;;6252855;28;20029;-72
2024/01/27 12:33:23;;;;;;;9.88;4.28;;;20.00;44.40;;;;;;6269203;28;20460;-73
2024/01/27 12:36:24;;;;;;;8.07;4.03;;;19.60;44.90;;;;;;6251358;28;20021;-72
2024/01/27 12:39:26;;;;;;;9.05;4.50;;;19.30;45.40;;;;;;6254521;28;20040;-73
2024/01/27 12:42:27;;;;;;;7.57;3.97;;;19.00;45.80;;;;;;6251176;28;20497;-71
2024/01/27 12:45:28;;;;;;;10.30;4.97;;;18.70;46.10;;;;;;6235052;28;20031;-72
2024/01/27 12:48:31;;;;;;;13.20;5.38;;;18.60;46.60;;;;;;6251821;28;20021;-74
2024/01/27 12:51:32;;;;;;;9.10;4.60;;;18.40;47.10;;;;;;6232443;28;20013;-72
2024/01/27 12:54:33;;;;;;;16.95;5.38;;;18.20;47.50;;;;;;6254444;28;20823;-72
2024/01/27 12:57:35;;;;;;;11.57;5.38;;;18.10;47.80;;;;;;6236142;28;20049;-72
2024/01/27 13:00:36;;;;;;;19.75;6.53;;;18.10;48.00;;;;;;6249648;28;20029;-72
2024/01/27 13:03:37;;;;;;;9.80;4.13;;;18.00;48.20;;;;;;6265423;28;20045;-70
2024/01/27 13:06:37;;;;;;;8.48;4.28;;;18.00;48.20;;;;;;6251324;28;20525;-75
2024/01/27 13:09:38;;;;;;;10.23;4.10;;;17.90;48.20;;;;;;6254047;28;20018;-72
2024/01/27 13:12:39;;;;;;;12.13;4.53;;;17.90;48.20;;;;;;6270678;28;20032;-73
2024/01/27 13:15:40;;;;;;;12.52;4.82;;;17.90;48.30;;;;;;6251112;28;20100;-72
2024/01/27 13:18:41;;;;;;;12.15;5.20;;;17.90;48.40;;;;;;6252344;28;20033;-72
2024/01/27 13:21:42;;;;;;;8.70;4.55;;;17.80;48.20;;;;;;6249319;28;20025;-72
2024/01/27 13:24:42;;;;;;;13.98;4.72;;;17.80;48.20;;;;;;6247886;28;20048;-72
2024/01/27 13:27:44;;;;;;;11.68;5.15;;;17.80;48.30;;;;;;6253432;28;20082;-72
2024/01/27 13:30:45;;;;;;;13.20;4.80;;;17.80;48.30;;;;;;6264350;28;20101;-72
2024/01/27 13:33:47;;;;;;;6.15;3.00;;;17.80;48.30;;;;;;6258517;28;20163;-73
2024/01/27 13:36:47;;;;;;;5.75;3.30;;;17.80;48.20;;;;;;6233283;28;20025;-72
2024/01/27 13:39:49;;;;;;;7.18;3.28;;;17.80;48.10;;;;;;6233425;28;20144;-72
2024/01/27 13:42:50;;;;;;;7.43;3.42;;;17.70;48.00;;;;;;6251473;28;20025;-73
2024/01/27 13:45:51;;;;;;;15.02;4.85;;;17.70;48.10;;;;;;6249400;28;20163;-72
2024/01/27 13:48:52;;;;;;;7.82;3.80;;;17.70;48.10;;;;;;6235451;28;20040;-71
2024/01/27 13:51:53;;;;;;;5.28;2.72;;;17.70;48.10;;;;;;6243944;28;20023;-72
2024/01/27 13:54:56;;;;;;;6.22;3.00;;;17.70;47.80;;;;;;6244022;28;20374;-72
2024/01/27 13:57:56;;;;;;;10.50;3.25;;;17.70;47.60;;;;;;6246846;28;20072;-71
2024/01/27 14:00:58;;;;;;;4.68;2.67;;;17.70;47.90;;;;;;6251447;28;20536;-72
2024/01/27 14:04:02;;;;;;;5.63;2.63;;;17.70;47.80;;;;;;6249208;28;20021;-72
2024/01/27 14:07:06;;;;;;;3.20;1.80;;;17.80;47.60;;;;;;6281987;28;20532;-73
2024/01/27 14:10:07;;;;;;;5.60;2.75;;;17.70;47.40;;;;;;6266268;28;20062;-71
2024/01/27 14:13:09;;;;;;;5.25;1.83;;;17.80;47.50;;;;;;6247655;28;20038;-72
2024/01/27 14:16:10;;;;;;;4.30;2.00;;;17.80;47.50;;;;;;6250602;28;20039;-71
2024/01/27 14:19:11;;;;;;;4.93;2.35;;;17.80;47.30;;;;;;6232788;28;20401;-71
2024/01/27 14:22:13;;;;;;;6.00;3.03;;;17.80;47.20;;;;;;6248324;28;20734;-72
2024/01/27 14:25:14;;;;;;;11.32;3.28;;;17.80;47.30;;;;;;6250601;28;20116;-73
2024/01/27 14:28:16;;;;;;;8.38;2.78;;;17.80;47.40;;;;;;6250992;28;20110;-72
2024/01/27 14:31:17;;;;;;;4.18;2.40;;;17.80;47.40;;;;;;6233773;28;20095;-71
2024/01/27 14:34:18;;;;;;;6.10;2.50;;;17.90;47.30;;;;;;6249517;28;20151;-71
2024/01/27 14:37:20;;;;;;;4.18;2.30;;;17.90;47.20;;;;;;6264859;28;20102;-72
2024/01/27 14:40:22;;;;;;;7.78;3.50;;;17.80;47.20;;;;;;6247869;28;20075;-72
2024/01/27 14:43:23;;;;;;;13.80;4.78;;;17.80;47.30;;;;;;6251495;28;20443;-72
2024/01/27 14:46:24;;;;;;;5.38;2.70;;;17.80;47.30;;;;;;6253506;28;20101;-73
2024/01/27 14:49:27;;;;;;;4.95;2.55;;;17.80;47.30;;;;;;6249211;28;20126;-73
2024/01/27 14:52:28;;;;;;;6.22;3.33;;;17.80;47.40;;;;;;6247008;28;20096;-73
2024/01/27 14:55:32;;;;;;;9.75;3.30;;;17.80;47.50;;;;;;6253260;28;20103;-72
2024/01/27 14:58:33;;;;;;;5.38;2.78;;;17.70;47.80;;;;;;6247809;28;20400;-72
2024/01/27 15:01:34;;;;;;;5.43;2.53;;;17.70;48.10;;;;;;6247295;28;20083;-73
2024/01/27 15:04:36;;;;;;;5.35;2.60;;;17.70;48.30;;;;;;6247564;28;20083;-71
2024/01/27 15:07:38;;;;;;;4.80;2.50;;;17.70;48.50;;;;;;6245591;28;20028;-74
2024/01/27 15:10:39;;;;;;;7.05;3.00;;;17.60;48.70;;;;;;6244332;28;20090;-73
2024/01/27 15:13:40;;;;;;;7.78;4.18;;;17.60;48.90;;;;;;6232145;28;20036;-73
2024/01/27 15:16:41;;;;;;;10.20;3.90;;;17.50;49.10;;;;;;6250539;28;20596;-74
2024/01/27 15:19:42;;;;;;;11.18;4.18;;;17.50;49.20;;;;;;6250677;28;20460;-71
2024/01/27 15:22:44;;;;;;;13.77;4.18;;;17.50;49.80;;;;;;6248869;28;20111;-74
2024/01/27 15:25:47;;;;;;;6.53;3.45;;;17.40;49.30;;;;;;6248960;28;20041;-72
2024/01/27 15:28:49;;;;;;;10.43;3.38;;;17.40;49.30;;;;;;6247795;28;20025;-73
2024/01/27 15:31:50;;;;;;;6.13;2.70;;;17.40;49.40;;;;;;6246108;28;20035;-73
2024/01/27 15:34:53;;;;;;;5.60;2.97;;;17.30;49.30;;;;;;6232504;28;20418;-71
2024/01/27 15:37:54;;;;;;;6.97;2.50;;;17.30;49.50;;;;;;6249245;28;21356;-71